Flight Track Log - Related Links

Times and Time Zones

All times are in EDT time to prevent confusion due to time zone crossing. See the SWA2788 flight status page for this flight to view local times or setup timezone preferences in your user account.

Time Position Orientation Groundspeed Altitude Reporting Facility
EDT Latitude Longitude Course Direction KTS MPH feet Rate Location/Type
Sun 02:55:07 PM 33.4333 -111.9833 90° East 190 219 2,100  Level Phoenix TRACON
Sun 02:56:08 PM 33.4333 -111.9167 90° East 227 261 3,800 2,132 Climbing Phoenix TRACON
Sun 02:57:08 PM 33.3833 -111.8833 151° Southeast 251 289 6,400 2,300 Climbing Phoenix TRACON
Sun 02:58:08 PM 33.3833 -111.9667 270° West 285 328 8,400 2,100 Climbing Phoenix TRACON
Sun 02:59:08 PM 33.3833 -112.0667 270° West 305 351 10,600 1,852 Climbing Phoenix TRACON
Sun 03:00:37 PM 33.4014 -112.2281 278° West 366 421 13,000 1,920 Climbing Albuquerque Center
Sun 03:01:38 PM 33.4133 -112.3622 276° West 380 437 15,400 2,195 Climbing Albuquerque Center
Sun 03:02:40 PM 33.4239 -112.4828 276° West 387 445 17,500 2,016 Climbing Albuquerque Center
Sun 03:03:43 PM 33.4350 -112.6111 276° West 392 451 19,600 1,887 Climbing Albuquerque Center
Sun 03:04:44 PM 33.4458 -112.7403 276° West 392 451 21,400 1,680 Climbing Albuquerque Center
Sun 03:05:48 PM 33.4672 -112.9003 279° West 407 468 23,100 1,452 Climbing Albuquerque Center
Sun 03:06:48 PM 33.4953 -113.0347 284° West 418 481 24,400 1,426 Climbing Albuquerque Center
Sun 03:07:50 PM 33.5203 -113.1731 282° West 423 487 26,000 1,680 Climbing Albuquerque Center
Sun 03:08:53 PM 33.5456 -113.3089 283° West 423 487 27,900 1,887 Climbing Albuquerque Center
Sun 03:09:54 PM 33.5706 -113.4417 283° West 415 478 29,900 1,968 Climbing Albuquerque Center
Sun 03:10:58 PM 33.5992 -113.5919 283° West 394 453 32,000 1,429 Climbing Albuquerque Center
Sun 03:12:00 PM 33.6186 -113.6975 283° West 384 442 32,900 1,131 Climbing Albuquerque Center
Sun 03:13:00 PM 33.6592 -113.8436 288° West 386 444 34,300 1,065 Climbing Albuquerque Center
Sun 03:14:04 PM 33.7031 -113.9600 294° West 384 442 35,100 816 Climbing Albuquerque Center
Sun 03:15:05 PM 33.7450 -114.0775 293° West 383 441 36,000 432 Climbing Albuquerque Center
Sun 03:16:09 PM 33.7892 -114.1950 294° West 385 443 36,000  Level Albuquerque Center
Sun 03:17:10 PM 33.8358 -114.3311 292° West 388 447 36,000  Level Albuquerque Center
Sun 03:18:04 PM 33.8733 -114.4333 294° West 389 448 36,000  Level Los Angeles Center
Sun 03:19:06 PM 33.9161 -114.5525 293° West 390 449 36,000  Level Los Angeles Center
Sun 03:20:09 PM 33.9653 -114.6950 293° West 387 445 36,000  Level Los Angeles Center
Sun 03:21:11 PM 34.0086 -114.8142 294° West 389 448 36,000  Level Los Angeles Center
Sun 03:22:13 PM 34.0503 -114.9328 293° West 386 444 36,000  Level Los Angeles Center
Sun 03:23:15 PM 34.0914 -115.0508 293° West 385 443 36,000  Level Los Angeles Center
Sun 03:24:17 PM 34.1319 -115.1692 293° West 384 442 36,000  Level Los Angeles Center
Sun 03:25:19 PM 34.1731 -115.2867 293° West 383 441 36,000  Level Los Angeles Center
Sun 03:26:21 PM 34.2222 -115.4300 293° West 386 444 36,000  Level Los Angeles Center
Sun 03:27:24 PM 34.2633 -115.5481 293° West 384 442 36,000  Level Los Angeles Center
Sun 03:28:26 PM 34.3039 -115.6658 293° West 382 440 36,000  Level Los Angeles Center
Sun 03:29:28 PM 34.3436 -115.7844 292° West 382 440 36,000  Level Los Angeles Center
Sun 03:30:30 PM 34.3900 -115.9186 293° West 384 442 36,000  Level Los Angeles Center
Sun 03:31:32 PM 34.4300 -116.0375 292° West 383 441 36,000  Level Los Angeles Center
Sun 03:32:34 PM 34.4706 -116.1564 293° West 383 441 36,000  Level Los Angeles Center
Sun 03:33:36 PM 34.5111 -116.2750 293° West 382 440 36,000  Level Los Angeles Center
Sun 03:34:38 PM 34.5517 -116.3944 292° West 383 441 36,000  Level Los Angeles Center
Sun 03:35:40 PM 34.5906 -116.5153 291° West 385 443 36,000  Level Los Angeles Center
Sun 03:36:43 PM 34.6386 -116.6583 292° West 383 441 36,000  Level Los Angeles Center
Sun 03:37:45 PM 34.6789 -116.7797 292° West 388 447 36,000  Level Los Angeles Center
Sun 03:38:47 PM 34.7181 -116.9003 292° West 385 443 36,000  Level Los Angeles Center
Sun 03:39:49 PM 34.7583 -117.0217 292° West 387 445 36,000  Level Los Angeles Center
Sun 03:41:00 PM 34.8042 -117.1533 293° West  Level FlightAware Approximate
Sun 03:41:53 PM 34.8458 -117.2894 293° West 390 449 36,000  Level Los Angeles Center
Sun 03:42:55 PM 34.8847 -117.4139 291° West 393 452 36,000  Level Los Angeles Center
Sun 03:43:57 PM 34.9242 -117.5397 291° West 397 457 36,000  Level Los Angeles Center
Sun 03:44:59 PM 34.9628 -117.6697 290° West 422 486 36,000  Level Los Angeles Center
Sun 03:46:02 PM 35.0072 -117.7956 293° West 407 468 36,000  Level Los Angeles Center
Sun 03:47:04 PM 35.0472 -117.9186 292° West 389 448 36,000  Level Los Angeles Center
Sun 03:48:06 PM 35.0883 -118.0433 292° West 394 453 36,000  Level Los Angeles Center
Sun 03:49:08 PM 35.1275 -118.1683 291° West 392 451 36,000  Level Los Angeles Center
Sun 03:50:10 PM 35.1747 -118.3203 291° West 398 458 36,000  Level Los Angeles Center
Sun 03:51:12 PM 35.2150 -118.4469 291° West 399 459 36,000  Level Los Angeles Center
Sun 03:52:14 PM 35.2539 -118.5672 292° West 398 458 36,000  Level Los Angeles Center
Sun 03:53:16 PM 35.2942 -118.6956 291° West 401 461 36,000  Level Los Angeles Center
Sun 03:54:19 PM 35.3417 -118.8489 291° West 401 461 36,000  Level Los Angeles Center
Sun 03:55:21 PM 35.3822 -118.9778 291° West 404 465 36,000  Level Los Angeles Center
Sun 03:56:23 PM 35.4231 -119.1069 291° West 406 467 36,000  Level Los Angeles Center
Sun 03:57:25 PM 35.4619 -119.2369 290° West 407 468 36,000  Level Los Angeles Center
Sun 03:58:27 PM 35.5014 -119.3669 290° West 407 468 36,000  Level Los Angeles Center
Sun 03:59:41 PM 35.5475 -119.5233 290° West 407 468 36,000  Level Los Angeles Center
Sun 04:00:44 PM 35.5944 -119.6803 290° West 409 471 36,000  Level Los Angeles Center
Sun 04:01:46 PM 35.6322 -119.8114 290° West 409 471 36,000  Level Los Angeles Center
Sun 04:02:48 PM 35.6703 -119.9394 290° West 405 466 36,000  Level Los Angeles Center
Sun 04:03:50 PM 35.7094 -120.0714 290° West 411 473 36,000  Level Oakland Center
Sun 04:04:52 PM 35.7553 -120.2283 290° West 411 473 36,000  Level Oakland Center
Sun 04:05:54 PM 35.7939 -120.3594 290° West 412 474 36,000  Level Oakland Center
Sun 04:06:56 PM 35.8333 -120.4908 290° West 412 474 36,000  Level Oakland Center
Sun 04:07:57 PM 35.9050 -120.6019 309° West 415 478 36,000  Level Oakland Center
Sun 04:08:59 PM 35.9797 -120.7103 310° West 417 480 36,000 -677 Level Oakland Center
Sun 04:10:01 PM 36.0556 -120.8214 310° West 421 484 34,600 -2,516 Descending Oakland Center
Sun 04:11:03 PM 36.1458 -120.9553 310° West 424 488 30,800 -3,220 Descending Oakland Center
Sun 04:12:04 PM 36.2211 -121.0681 310° West 426 490 28,000 -2,585 Descending Oakland Center
Sun 04:13:06 PM 36.2947 -121.1764 310° West 415 478 25,500 -2,323 Descending Oakland Center
Sun 04:14:08 PM 36.3639 -121.2817 309° West 397 457 23,200 -2,634 Descending Oakland Center
Sun 04:15:09 PM 36.4397 -121.3750 315° West 386 444 20,100 -2,683 Descending Oakland Center
Sun 04:16:11 PM 36.5511 -121.4081 347° North 395 455 17,700 -2,613 Descending Oakland Center
Sun 04:17:13 PM 36.6572 -121.4436 345° North 395 455 14,700 -2,661 Descending Oakland Center
Sun 04:18:15 PM 36.7836 -121.4822 346° North 384 442 12,200 -2,195 Descending Oakland Center
Sun 04:19:16 PM 36.8808 -121.5242 341° North 366 421 10,200 -1,415 Descending Oakland Center
Sun 04:20:18 PM 36.9578 -121.5825 329° Northwest 323 372 9,300 -1,258 Descending Oakland Center
Sun 04:21:20 PM 37.0350 -121.6314 333° Northwest 312 359 7,600 -1,306 Descending Oakland Center
Sun 04:22:22 PM 37.1169 -121.6811 334° Northwest 293 337 6,600 -1,260 Descending Oakland Center
Sun 04:23:00 PM 37.1667 -121.7167 330° Northwest 277 319 5,500 -1,653 Descending Northern Cal TRACON
Sun 04:24:00 PM 37.2167 -121.7667 321° Northwest 262 302 3,900 -1,600 Descending Northern Cal TRACON
Sun 04:25:00 PM 37.2667 -121.8167 321° Northwest 222 255 2,300 -1,150 Descending Northern Cal TRACON
Sun 04:26:00 PM 37.3000 -121.8667 310° West 169 194 1,600 -762 Descending Northern Cal TRACON
Sun 04:27:06 PM 37.3333 -121.9000 322° Northwest 133 153 700 -818 Descending Northern Cal TRACON
Sun 04:29:00 PM 37.3500 -121.9167 North  Level FlightAware Approximate
Sun 04:36:00 PM 37.3627 -121.9291 North  Level Estimated
Sun 04:37:00 PM 37.3627 -121.9291 North  Level Estimated

Login

Don't have an account? Register now (free) for customized features, flight alerts, and more!